Time;durP1;ratioP1;P1;durP2;ratioP2;P2;SDS_P1;SDS_P2;PMS_P1;PMS_P2;Temp;Humidity;BMP_temperature;BMP_pressure;BME280_temperature;BME280_humidity;BME280_pressure;Samples;Min_cycle;Max_cycle;Signal;HPM_P1;HPM_P2
2021/10/03 00:00:36;;;;;;;1.92;1.83;;;;;;;15.63;95.06;99344.09;2066643;28;20050;-70
2021/10/03 00:01:36;;;;;;;3.78;1.85;;;;;;;15.65;95.24;99351.84;2066606;28;20073;-65
2021/10/03 00:02:40;;;;;;;1.63;1.43;;;;;;;15.66;94.93;99346.47;2066637;28;20022;-65
2021/10/03 00:03:45;;;;;;;3.55;1.38;;;;;;;15.64;95.54;99343.13;2066631;28;20770;-67
2021/10/03 00:04:45;;;;;;;1.70;1.60;;;;;;;15.64;95.02;99343.13;2066659;28;20065;-68
2021/10/03 00:05:47;;;;;;;3.45;2.00;;;;;;;15.65;95.20;99346.59;2066687;28;20027;-64
2021/10/03 00:06:47;;;;;;;2.50;2.30;;;;;;;15.64;95.52;99339.69;2066631;28;20030;-64
2021/10/03 00:07:50;;;;;;;3.30;2.70;;;;;;;15.61;95.47;99353.09;2066665;28;20130;-64
2021/10/03 00:08:51;;;;;;;4.13;2.83;;;;;;;15.59;95.43;99332.19;2066534;28;20496;-68
2021/10/03 00:09:52;;;;;;;2.22;2.03;;;;;;;15.60;95.76;99352.25;2066573;28;20042;-66
2021/10/03 00:10:54;;;;;;;;;;;;;;;15.60;95.63;99344.38;2067027;28;20113;-66
2021/10/03 00:11:54;;;;;;;4.07;1.10;;;;;;;15.60;95.76;99346.19;2065897;28;19910;-68
2021/10/03 00:12:55;;;;;;;2.50;1.33;;;;;;;15.58;96.05;99346.31;2065979;28;20030;-68
2021/10/03 00:13:56;;;;;;;1.92;1.23;;;;;;;15.58;96.20;99359.47;2066458;28;20101;-66
2021/10/03 00:14:57;;;;;;;3.47;1.58;;;;;;;15.57;96.19;99350.72;2066559;28;20025;-68
2021/10/03 00:15:57;;;;;;;5.17;1.90;;;;;;;15.56;96.10;99337.72;2066558;28;20038;-69
2021/10/03 00:16:58;;;;;;;2.10;1.27;;;;;;;15.56;96.02;99349.06;2065864;28;20400;-67
2021/10/03 00:17:58;;;;;;;3.05;1.50;;;;;;;15.58;96.25;99343.69;2065960;28;20049;-66
2021/10/03 00:18:59;;;;;;;2.30;1.70;;;;;;;15.60;96.15;99338.28;2066501;28;20113;-68
2021/10/03 00:20:00;;;;;;;1.93;1.33;;;;;;;15.62;95.76;99352.97;2066447;28;20839;-67
2021/10/03 00:21:01;;;;;;;2.33;1.58;;;;;;;15.62;95.97;99355.59;2066430;28;20790;-67
2021/10/03 00:22:01;;;;;;;1.35;1.10;;;;;;;15.63;95.44;99338.84;2066483;28;20488;-67
2021/10/03 00:23:02;;;;;;;3.03;1.33;;;;;;;15.62;95.98;99358.22;2066510;28;20054;-65
2021/10/03 00:24:03;;;;;;;2.42;1.20;;;;;;;15.60;95.84;99354.88;2066614;28;20022;-67
2021/10/03 00:25:05;;;;;;;1.58;1.20;;;;;;;15.59;95.97;99353.22;2066457;28;20027;-67
2021/10/03 00:26:05;;;;;;;2.67;1.50;;;;;;;15.62;95.57;99358.22;2066543;28;20447;-68
2021/10/03 00:27:06;;;;;;;1.30;1.05;;;;;;;15.65;95.64;99344.81;2066432;28;20034;-67
2021/10/03 00:28:07;;;;;;;2.53;1.83;;;;;;;15.70;94.93;99355.75;2066549;28;20105;-67
2021/10/03 00:29:08;;;;;;;2.45;1.30;;;;;;;15.75;94.73;99351.88;2066424;28;20077;-67
2021/10/03 00:30:09;;;;;;;1.93;1.10;;;;;;;15.77;95.15;99366.56;2066307;28;20092;-67
2021/10/03 00:31:09;;;;;;;1.33;1.20;;;;;;;15.74;95.03;99360.75;2066472;28;20439;-66
2021/10/03 00:32:09;;;;;;;1.37;1.27;;;;;;;15.73;95.26;99356.47;2066425;28;20053;-67
2021/10/03 00:33:10;;;;;;;2.80;1.10;;;;;;;15.71;95.18;99361.84;2066418;28;20037;-64
2021/10/03 00:34:11;;;;;;;2.10;1.50;;;;;;;15.71;95.23;99352.16;2066346;28;20491;-66
2021/10/03 00:35:12;;;;;;;1.40;1.17;;;;;;;15.71;95.57;99357.41;2066471;28;20026;-65
2021/10/03 00:36:12;;;;;;;2.78;1.60;;;;;;;15.68;95.60;99362.94;2065763;28;20463;-68
2021/10/03 00:37:12;;;;;;;1.60;1.30;;;;;;;15.66;95.51;99356.97;2065854;28;20022;-67
2021/10/03 00:38:13;;;;;;;5.20;1.30;;;;;;;15.66;95.68;99349.09;2065709;28;20022;-66
2021/10/03 00:39:13;;;;;;;1.40;1.02;;;;;;;15.67;95.76;99363.09;2065746;28;20026;-69
2021/10/03 00:40:14;;;;;;;1.10;1.00;;;;;;;15.67;95.90;99350.75;2066374;28;20026;-68
2021/10/03 00:41:15;;;;;;;1.60;1.50;;;;;;;15.66;96.19;99354.34;2066285;28;20108;-67
2021/10/03 00:42:16;;;;;;;2.40;1.33;;;;;;;15.63;95.79;99344.09;2065587;28;20022;-67
2021/10/03 00:43:16;;;;;;;2.27;1.10;;;;;;;15.61;96.13;99345.22;2065763;28;20030;-64
2021/10/03 00:44:17;;;;;;;1.87;1.50;;;;;;;15.60;96.18;99346.19;2065648;28;20097;-69
2021/10/03 00:45:18;;;;;;;1.20;0.98;;;;;;;15.57;96.60;99352.53;2057575;28;20023;-67
2021/10/03 00:46:19;;;;;;;1.23;0.95;;;;;;;15.57;96.81;99344.66;2065734;28;20077;-68
2021/10/03 00:47:19;;;;;;;1.88;1.58;;;;;;;15.58;96.59;99348.94;2066366;28;20046;-67
2021/10/03 00:48:20;;;;;;;1.83;1.00;;;;;;;15.62;96.38;99339.81;2066241;28;20302;-68
2021/10/03 00:49:20;;;;;;;3.53;1.00;;;;;;;15.65;96.11;99352.69;2066287;28;20060;-68
2021/10/03 00:50:20;;;;;;;1.10;1.00;;;;;;;15.67;96.20;99350.75;2066229;28;20036;-69
2021/10/03 00:51:21;;;;;;;2.70;1.13;;;;;;;15.66;96.39;99354.34;2066253;28;20362;-68
2021/10/03 00:52:21;;;;;;;1.60;1.20;;;;;;;15.66;96.24;99349.09;2066268;28;20026;-70
2021/10/03 00:53:21;;;;;;;2.00;1.00;;;;;;;15.68;95.94;99344.53;2066220;28;20026;-67
2021/10/03 00:54:22;;;;;;;2.63;1.08;;;;;;;15.68;96.03;99352.41;2066120;28;20366;-65
2021/10/03 00:55:22;;;;;;;1.70;1.60;;;;;;;15.69;96.17;99348.00;2066221;28;20034;-66
2021/10/03 00:56:23;;;;;;;3.08;1.38;;;;;;;15.69;95.88;99345.38;2065582;28;20030;-68
2021/10/03 00:57:23;;;;;;;2.15;1.10;;;;;;;15.66;96.49;99343.84;2065589;28;20030;-66
2021/10/03 00:58:24;;;;;;;1.53;1.07;;;;;;;15.66;96.23;99349.09;2065549;28;20235;-69
2021/10/03 00:59:24;;;;;;;4.43;1.70;;;;;;;15.65;96.97;99347.44;2065440;28;20511;-68
2021/10/03 01:00:27;;;;;;;2.88;1.80;;;;;;;15.62;96.97;99331.94;2066162;28;20026;-71
2021/10/03 01:01:27;;;;;;;1.10;1.00;;;;;;;15.61;97.26;99351.31;2066050;28;20037;-68
2021/10/03 01:02:27;;;;;;;1.23;1.13;;;;;;;15.60;96.89;99347.00;2065411;28;20540;-67
2021/10/03 01:03:28;;;;;;;2.17;1.47;;;;;;;15.61;97.20;99343.41;2065576;28;20045;-70
2021/10/03 01:04:28;;;;;;;1.70;1.60;;;;;;;15.56;97.24;99338.56;2065587;28;20084;-69
2021/10/03 01:05:29;;;;;;;1.33;1.13;;;;;;;15.51;97.45;99350.44;2066157;28;20570;-68
2021/10/03 01:06:30;;;;;;;1.77;1.10;;;;;;;15.45;98.10;99347.38;2066095;28;20411;-66
2021/10/03 01:07:30;;;;;;;1.23;1.13;;;;;;;15.43;98.34;99353.75;2066117;28;20026;-66
2021/10/03 01:08:30;;;;;;;1.30;1.10;;;;;;;15.42;98.81;99341.56;2066139;28;20117;-67
2021/10/03 01:09:30;;;;;;;2.40;1.33;;;;;;;15.41;98.46;99340.75;2066105;28;20093;-67
2021/10/03 01:10:32;;;;;;;1.60;1.20;;;;;;;15.42;98.67;99352.91;2065426;28;20038;-68
2021/10/03 01:11:32;;;;;;;;;;;;;;;15.43;98.88;99351.94;2065976;28;20014;-67
2021/10/03 01:12:33;;;;;;;1.70;1.60;;;;;;;15.43;98.78;99351.13;2066066;28;20379;-68
2021/10/03 01:13:34;;;;;;;1.83;1.42;;;;;;;15.42;98.93;99347.66;2066132;28;20073;-67
2021/10/03 01:14:34;;;;;;;1.60;1.50;;;;;;;15.44;98.75;99337.00;2066026;28;20427;-64
2021/10/03 01:15:38;;;;;;;1.60;1.50;;;;;;;15.45;98.16;99336.03;2066098;28;20022;-65
2021/10/03 01:16:39;;;;;;;1.20;0.93;;;;;;;15.44;98.64;99340.44;2066028;28;20018;-68
2021/10/03 01:17:40;;;;;;;1.15;1.05;;;;;;;15.42;98.44;99342.41;2066081;28;20563;-66
2021/10/03 01:18:40;;;;;;;2.10;0.83;;;;;;;15.40;98.74;99333.78;2065983;28;20026;-67
2021/10/03 01:19:40;;;;;;;1.97;1.20;;;;;;;15.38;99.15;99335.75;2066065;28;20475;-66
2021/10/03 01:20:42;;;;;;;1.57;1.00;;;;;;;15.39;99.30;99334.78;2065967;28;20022;-66
2021/10/03 01:21:44;;;;;;;1.20;1.00;;;;;;;15.42;98.90;99337.13;2065964;28;20058;-66
2021/10/03 01:22:45;;;;;;;1.40;1.13;;;;;;;15.43;98.82;99338.78;2065880;28;20454;-65
2021/10/03 01:23:45;;;;;;;1.40;1.13;;;;;;;15.44;98.73;99337.81;2065987;28;20114;-66
2021/10/03 01:24:46;;;;;;;2.67;1.23;;;;;;;15.47;98.95;99338.53;2066001;28;20526;-67
2021/10/03 01:25:48;;;;;;;4.93;1.57;;;;;;;15.47;98.78;99338.53;2065970;28;20033;-64
2021/10/03 01:26:49;;;;;;;2.47;1.65;;;;;;;15.47;99.03;99343.78;2066022;28;20030;-65
2021/10/03 01:27:49;;;;;;;1.33;1.23;;;;;;;15.45;98.72;99323.72;2065969;28;20072;-65
2021/10/03 01:28:53;;;;;;;1.70;1.60;;;;;;;15.44;98.98;99329.94;2065987;28;20036;-65
2021/10/03 01:29:53;;;;;;;2.42;1.77;;;;;;;15.44;99.09;99329.94;2065280;28;20018;-67
2021/10/03 01:30:54;;;;;;;2.10;1.80;;;;;;;15.44;98.90;99329.94;2065299;28;20435;-65
2021/10/03 01:31:55;;;;;;;1.92;1.83;;;;;;;15.44;99.07;99319.41;2065878;28;20018;-68
2021/10/03 01:32:55;;;;;;;1.60;1.50;;;;;;;15.47;98.93;99328.00;2065917;28;20121;-66
2021/10/03 01:33:57;;;;;;;1.80;1.70;;;;;;;15.48;98.83;99341.03;2065865;28;20045;-66
2021/10/03 01:34:57;;;;;;;1.55;1.40;;;;;;;15.49;98.90;99337.44;2065212;28;20455;-65
2021/10/03 01:35:58;;;;;;;2.63;1.40;;;;;;;15.49;98.70;99331.31;2065341;28;20030;-64
2021/10/03 01:36:58;;;;;;;1.00;0.90;;;;;;;15.48;98.93;99337.56;2065860;28;20109;-67
2021/10/03 01:37:58;;;;;;;1.63;1.43;;;;;;;15.51;98.77;99332.03;2065251;28;20550;-68
2021/10/03 01:38:58;;;;;;;1.10;1.00;;;;;;;15.54;98.35;99329.16;2065355;28;20045;-64
2021/10/03 01:40:02;;;;;;;1.33;1.17;;;;;;;15.53;98.14;99323.03;2065881;28;20061;-64
2021/10/03 01:41:02;;;;;;;1.40;1.10;;;;;;;15.56;98.45;99329.81;2065993;28;20030;-68
2021/10/03 01:42:03;;;;;;;3.43;1.10;;;;;;;15.55;98.32;99329.00;2065856;28;20022;-68
2021/10/03 01:43:04;;;;;;;2.35;1.10;;;;;;;15.54;98.46;99321.25;2065804;28;20061;-66
2021/10/03 01:44:04;;;;;;;1.48;0.98;;;;;;;15.54;98.40;99324.69;2065815;28;20479;-67
2021/10/03 01:45:08;;;;;;;1.48;1.30;;;;;;;15.53;98.43;99323.03;2065173;28;20062;-67
2021/10/03 01:46:09;;;;;;;1.63;1.25;;;;;;;15.53;98.35;99319.59;2065255;28;20023;-69
2021/10/03 01:47:09;;;;;;;3.07;1.10;;;;;;;15.52;99.05;99328.44;2065850;28;20072;-66
2021/10/03 01:48:19;;;;;;;1.98;1.52;;;;;;;15.52;98.79;99321.38;2065805;28;20395;-67
2021/10/03 01:49:19;;;;;;;1.30;1.02;;;;;;;15.56;98.17;99308.78;2065835;28;20049;-69
2021/10/03 01:50:19;;;;;;;1.13;1.03;;;;;;;15.58;98.56;99314.75;2065817;28;20035;-69
2021/10/03 01:51:20;;;;;;;1.63;1.03;;;;;;;15.58;98.68;99327.91;2065848;28;20030;-67
2021/10/03 01:52:20;;;;;;;2.22;1.40;;;;;;;15.56;98.62;99314.06;2065777;28;20018;-67
2021/10/03 01:53:44;;;;;;;1.73;1.43;;;;;;;15.55;98.57;99312.41;2065805;28;20100;-66
2021/10/03 01:54:45;;;;;;;1.75;1.30;;;;;;;15.56;98.62;99306.16;2065311;28;20115;-67
2021/10/03 01:55:46;;;;;;;3.07;1.20;;;;;;;15.57;98.60;99305.22;2065822;28;20026;-69
2021/10/03 01:56:46;;;;;;;;;;;;;;;15.60;98.09;99312.81;2065048;28;20058;-67
2021/10/03 01:57:47;;;;;;;2.00;1.80;;;;;;;15.63;98.20;99312.56;2065204;28;19910;-66
2021/10/03 01:58:50;;;;;;;1.37;1.27;;;;;;;15.66;97.79;99300.91;2065774;28;20030;-65
2021/10/03 01:59:50;;;;;;;3.05;1.73;;;;;;;15.68;97.71;99320.03;2065552;28;20081;-66
2021/10/03 02:00:56;;;;;;;1.80;1.33;;;;;;;15.67;97.69;99313.94;2065816;28;20037;-68
2021/10/03 02:01:58;;;;;;;1.45;1.10;;;;;;;15.65;97.92;99300.13;2065713;28;20027;-69
2021/10/03 02:03:00;;;;;;;1.17;1.00;;;;;;;15.66;97.97;99303.56;2065720;28;20452;-66
2021/10/03 02:04:06;;;;;;;1.25;1.00;;;;;;;15.64;98.19;99308.13;2065772;28;20049;-67
2021/10/03 02:05:07;;;;;;;1.88;1.52;;;;;;;15.63;98.28;99302.03;2065094;28;20515;-66
2021/10/03 02:06:07;;;;;;;1.23;1.10;;;;;;;15.62;98.29;99294.28;2065096;28;20030;-66
2021/10/03 02:07:07;;;;;;;1.73;1.63;;;;;;;15.58;98.28;99299.81;2065685;28;20053;-67
2021/10/03 02:08:10;;;;;;;1.60;1.50;;;;;;;15.59;98.29;99303.28;2065704;28;20025;-68
2021/10/03 02:09:12;;;;;;;3.88;2.13;;;;;;;15.61;98.45;99301.34;2064983;28;20109;-68
2021/10/03 02:10:12;;;;;;;2.30;1.95;;;;;;;15.61;98.38;99306.59;2057202;28;20392;-69
2021/10/03 02:11:12;;;;;;;1.60;1.50;;;;;;;15.60;98.32;99298.84;2065131;28;20034;-68
2021/10/03 02:12:13;;;;;;;2.93;1.90;;;;;;;15.62;98.93;99307.41;2065696;28;20026;-67
2021/10/03 02:13:13;;;;;;;3.40;1.27;;;;;;;15.59;98.88;99295.38;2065655;28;20084;-67
2021/10/03 02:14:16;;;;;;;2.20;1.95;;;;;;;15.56;98.92;99293.03;2065547;28;20026;-67
2021/10/03 02:15:17;;;;;;;2.53;1.67;;;;;;;15.54;99.03;99297.59;2065609;28;20026;-68
2021/10/03 02:16:17;;;;;;;1.73;1.63;;;;;;;15.53;99.17;99280.16;2064964;28;20476;-67
2021/10/03 02:17:18;;;;;;;2.72;1.77;;;;;;;15.54;99.08;99287.09;2056915;28;20101;-67
2021/10/03 02:18:20;;;;;;;3.13;1.40;;;;;;;15.53;99.40;99285.44;2065067;28;20053;-67
2021/10/03 02:19:20;;;;;;;2.05;1.63;;;;;;;15.52;99.64;99286.38;2065564;28;20113;-65
2021/10/03 02:20:21;;;;;;;4.77;1.80;;;;;;;15.52;99.42;99283.75;2065680;28;20034;-68
2021/10/03 02:21:21;;;;;;;3.05;1.67;;;;;;;15.51;99.55;99282.09;2065628;28;20031;-67
2021/10/03 02:22:22;;;;;;;1.80;1.33;;;;;;;15.52;99.60;99283.75;2065681;28;20109;-67
2021/10/03 02:23:22;;;;;;;1.40;1.30;;;;;;;15.51;99.41;99266.31;2064960;28;20022;-68
2021/10/03 02:24:23;;;;;;;1.30;1.17;;;;;;;15.52;99.63;99270.59;2064947;28;20024;-67
2021/10/03 02:25:23;;;;;;;1.50;1.40;;;;;;;15.52;99.70;99271.44;2065036;28;20058;-68
2021/10/03 02:26:23;;;;;;;1.63;1.40;;;;;;;15.53;99.67;99269.66;2065663;28;20031;-67
2021/10/03 02:27:25;;;;;;;1.50;1.40;;;;;;;15.53;99.56;99267.03;2064948;28;20033;-66
2021/10/03 02:28:26;;;;;;;1.67;1.52;;;;;;;15.55;99.46;99262.44;2065099;28;20022;-68
2021/10/03 02:29:27;;;;;;;;;;;;;;;15.55;99.36;99259.81;2066068;28;20018;-66
2021/10/03 02:30:27;;;;;;;1.55;1.02;;;;;;;15.53;99.59;99257.31;2068458;28;19960;-68
2021/10/03 02:31:27;;;;;;;1.30;1.07;;;;;;;15.52;99.38;99253.03;2065636;28;20468;-67
2021/10/03 02:32:29;;;;;;;1.57;1.47;;;;;;;15.51;99.35;99255.81;2065640;28;20019;-68
2021/10/03 02:33:29;;;;;;;3.45;1.50;;;;;;;15.53;99.71;99253.88;2065542;28;20487;-67
2021/10/03 02:34:30;;;;;;;2.97;1.50;;;;;;;15.53;99.64;99248.63;2065525;28;20037;-65
2021/10/03 02:35:30;;;;;;;1.33;1.10;;;;;;;15.55;99.11;99250.16;2065605;28;20109;-69
2021/10/03 02:36:31;;;;;;;2.43;1.30;;;;;;;15.55;99.74;99254.56;2065586;28;20143;-67
2021/10/03 02:37:31;;;;;;;1.25;1.15;;;;;;;15.55;99.54;99251.94;2064914;28;20027;-67
2021/10/03 02:38:32;;;;;;;2.13;1.63;;;;;;;15.55;99.34;99249.31;2065026;28;20069;-68
2021/10/03 02:39:32;;;;;;;;;;;;;;;15.57;99.49;99252.63;2065961;28;20022;-68
2021/10/03 02:40:35;;;;;;;3.17;1.50;;;;;;;15.56;99.65;99256.22;2065573;28;19914;-67
2021/10/03 02:41:36;;;;;;;4.15;1.30;;;;;;;15.57;99.57;99260.53;2065549;28;20026;-68
2021/10/03 02:42:36;;;;;;;2.40;2.20;;;;;;;15.63;98.86;99244.19;2065589;28;20050;-66
2021/10/03 02:43:39;;;;;;;3.55;1.85;;;;;;;15.64;99.00;99248.47;2065446;28;20129;-69
2021/10/03 02:44:40;;;;;;;1.83;1.58;;;;;;;15.63;98.64;99238.94;2065487;28;20015;-68
2021/10/03 02:45:43;;;;;;;1.75;1.40;;;;;;;15.62;99.15;99232.00;2065520;28;20115;-67
2021/10/03 02:46:43;;;;;;;1.73;1.63;;;;;;;15.61;98.77;99226.88;2065493;28;20037;-68
2021/10/03 02:47:44;;;;;;;1.63;1.40;;;;;;;15.62;98.55;99232.00;2065559;28;20423;-67
2021/10/03 02:48:50;;;;;;;2.33;2.07;;;;;;;15.61;98.97;99246.13;2065530;28;20037;-67
2021/10/03 02:49:50;;;;;;;2.55;2.13;;;;;;;15.61;99.21;99250.56;2064816;28;20045;-67
2021/10/03 02:50:52;;;;;;;2.37;1.80;;;;;;;15.62;98.75;99262.72;2064904;28;20042;-68
2021/10/03 02:51:52;;;;;;;1.58;1.23;;;;;;;15.62;98.80;99247.78;2064905;28;20111;-69
2021/10/03 02:52:52;;;;;;;2.07;1.70;;;;;;;15.64;98.88;99263.44;2064981;28;20022;-67
2021/10/03 02:53:54;;;;;;;2.73;2.37;;;;;;;15.65;98.98;99255.41;2064905;28;20030;-66
2021/10/03 02:54:54;;;;;;;2.22;1.67;;;;;;;15.66;98.33;99249.19;2064817;28;20026;-68
2021/10/03 02:55:55;;;;;;;2.47;1.50;;;;;;;15.68;98.30;99239.34;2065728;28;20061;-67
2021/10/03 02:56:55;;;;;;;2.60;2.38;;;;;;;15.68;98.55;99230.63;2065630;28;20054;-67
2021/10/03 02:57:56;;;;;;;2.90;2.60;;;;;;;15.70;98.04;99229.53;2065575;28;20416;-66
2021/10/03 02:58:56;;;;;;;4.93;2.30;;;;;;;15.71;98.01;99225.91;2065674;28;20077;-68
2021/10/03 02:59:57;;;;;;;2.83;2.15;;;;;;;15.71;98.25;99223.28;2065699;28;20130;-71
2021/10/03 03:00:57;;;;;;;3.13;2.37;;;;;;;15.71;97.90;99236.44;2064981;28;20022;-70
2021/10/03 03:01:58;;;;;;;3.10;2.80;;;;;;;15.74;97.67;99239.78;2065042;28;20085;-69
2021/10/03 03:02:58;;;;;;;2.70;2.45;;;;;;;15.78;97.37;99252.50;2065575;28;20476;-70
2021/10/03 03:03:58;;;;;;;3.67;1.83;;;;;;;15.78;97.14;99251.69;2065736;28;20027;-69
2021/10/03 03:04:59;;;;;;;2.10;1.83;;;;;;;15.79;97.31;99253.31;2065482;28;20029;-68
2021/10/03 03:06:01;;;;;;;;;;;;;;;15.74;97.77;99234.50;2065928;28;20041;-68
2021/10/03 03:07:01;;;;;;;4.82;2.28;;;;;;;15.73;97.65;99243.38;2065480;28;19917;-68
2021/10/03 03:08:03;;;;;;;3.80;2.07;;;;;;;15.73;97.53;99253.91;2065399;28;20026;-68
2021/10/03 03:09:03;;;;;;;3.60;2.00;;;;;;;15.74;97.42;99226.63;2066452;28;20058;-68
2021/10/03 03:10:05;;;;;;;2.67;1.93;;;;;;;15.83;96.40;99233.66;2066997;28;20468;-70
2021/10/03 03:11:07;;;;;;;3.67;2.10;;;;;;;15.93;95.52;99255.56;2066966;28;20034;-67
2021/10/03 03:12:08;;;;;;;3.22;2.67;;;;;;;16.04;94.21;99223.03;2066369;28;20034;-68
2021/10/03 03:13:08;;;;;;;4.07;2.30;;;;;;;16.09;94.29;99248.94;2066480;28;20377;-64
2021/10/03 03:14:09;;;;;;;3.73;2.47;;;;;;;16.10;94.54;99234.78;2066933;28;20022;-69
2021/10/03 03:15:09;;;;;;;4.75;2.38;;;;;;;16.06;94.81;99238.69;2066349;28;20113;-68
2021/10/03 03:16:10;;;;;;;3.77;3.27;;;;;;;15.99;95.01;99238.41;2066408;28;20038;-67
2021/10/03 03:17:15;;;;;;;4.80;3.47;;;;;;;15.99;94.79;99256.00;2066966;28;20281;-64
2021/10/03 03:18:16;;;;;;;2.75;2.50;;;;;;;15.99;94.88;99254.19;2066956;28;20066;-70
2021/10/03 03:19:17;;;;;;;3.47;3.17;;;;;;;15.99;95.16;99241.03;2066976;28;20468;-68
2021/10/03 03:20:18;;;;;;;3.47;2.75;;;;;;;16.00;95.28;99231.34;2066903;28;20023;-67
2021/10/03 03:21:18;;;;;;;3.70;2.08;;;;;;;15.96;95.28;99239.53;2066971;28;20030;-68
2021/10/03 03:22:18;;;;;;;4.60;3.00;;;;;;;15.96;94.89;99236.91;2066875;28;20495;-66
2021/10/03 03:23:19;;;;;;;3.50;2.90;;;;;;;15.96;94.96;99243.94;2067031;28;20022;-68
2021/10/03 03:24:19;;;;;;;3.63;2.57;;;;;;;15.92;95.41;99237.28;2066956;28;20422;-69
2021/10/03 03:25:20;;;;;;;2.97;2.65;;;;;;;15.91;95.39;99243.50;2066300;28;20036;-68
2021/10/03 03:26:20;;;;;;;3.10;2.67;;;;;;;15.89;95.41;99238.38;2066321;28;20023;-67
2021/10/03 03:27:20;;;;;;;4.20;3.50;;;;;;;15.87;95.74;99247.41;2066228;28;20033;-68
2021/10/03 03:28:21;;;;;;;2.97;2.47;;;;;;;15.85;95.79;99242.28;2066347;28;20174;-68
2021/10/03 03:29:21;;;;;;;3.77;2.90;;;;;;;15.89;94.70;99238.38;2066850;28;20291;-67
2021/10/03 03:30:21;;;;;;;3.97;2.60;;;;;;;15.92;94.63;99232.84;2066944;28;20026;-66
2021/10/03 03:31:22;;;;;;;5.30;3.00;;;;;;;15.92;94.95;99238.13;2066937;28;20022;-66
2021/10/03 03:32:22;;;;;;;3.20;2.90;;;;;;;15.88;95.18;99244.59;2066764;28;20307;-67
2021/10/03 03:33:22;;;;;;;4.10;3.03;;;;;;;15.86;95.25;99243.91;2066255;28;20076;-68
2021/10/03 03:34:23;;;;;;;5.23;2.90;;;;;;;15.85;95.51;99242.28;2066175;28;20558;-68
2021/10/03 03:35:24;;;;;;;4.23;2.93;;;;;;;15.84;95.13;99238.78;2066844;28;20105;-68
2021/10/03 03:36:25;;;;;;;4.07;3.70;;;;;;;15.80;95.14;99249.72;2066827;28;20034;-66
2021/10/03 03:37:25;;;;;;;4.70;3.23;;;;;;;15.81;94.62;99252.22;2066845;28;20458;-66
2021/10/03 03:38:25;;;;;;;6.75;3.03;;;;;;;15.87;94.34;99260.53;2066806;28;20052;-66
2021/10/03 03:39:26;;;;;;;3.27;2.87;;;;;;;15.88;94.56;99257.75;2066179;28;20474;-68
2021/10/03 03:40:26;;;;;;;4.70;4.17;;;;;;;15.85;94.63;99250.16;2066215;28;20069;-68
2021/10/03 03:41:26;;;;;;;4.50;4.10;;;;;;;15.85;94.21;99247.53;2066787;28;20038;-67
2021/10/03 03:42:27;;;;;;;6.43;3.87;;;;;;;15.84;94.11;99266.88;2066761;28;20030;-67
2021/10/03 03:43:27;;;;;;;5.90;3.67;;;;;;;15.81;95.04;99288.22;2066123;28;20472;-65
2021/10/03 03:44:29;;;;;;;5.60;4.00;;;;;;;15.79;95.51;99295.41;2066107;28;20022;-67
2021/10/03 03:45:29;;;;;;;5.45;4.10;;;;;;;15.76;95.37;99279.91;2066696;28;20022;-66
2021/10/03 03:46:29;;;;;;;4.73;3.40;;;;;;;15.74;94.99;99282.66;2066089;28;20116;-67
2021/10/03 03:47:30;;;;;;;4.03;3.57;;;;;;;15.70;95.06;99271.59;2066128;28;20044;-67
2021/10/03 03:48:30;;;;;;;5.20;4.53;;;;;;;15.70;95.36;99276.84;2066689;28;20105;-64
2021/10/03 03:49:30;;;;;;;4.30;3.50;;;;;;;15.69;95.23;99271.72;2066735;28;20049;-67
2021/10/03 03:50:33;;;;;;;4.73;4.07;;;;;;;15.70;95.06;99281.28;2066004;28;20030;-68
2021/10/03 03:51:33;;;;;;;4.85;3.92;;;;;;;15.68;95.62;99289.28;2066173;28;20030;-66
2021/10/03 03:52:34;;;;;;;5.33;4.93;;;;;;;15.66;95.62;99296.50;2066055;28;20015;-67
2021/10/03 03:53:34;;;;;;;5.93;4.53;;;;;;;15.66;95.49;99296.50;2066133;28;20030;-67
2021/10/03 03:54:34;;;;;;;7.13;4.50;;;;;;;15.63;96.14;99291.50;2065954;28;20141;-69
2021/10/03 03:55:35;;;;;;;4.90;4.03;;;;;;;15.61;95.88;99293.47;2066056;28;20030;-66
2021/10/03 03:56:35;;;;;;;5.20;4.53;;;;;;;15.60;96.13;99291.78;2066569;28;20438;-67
2021/10/03 03:57:36;;;;;;;5.17;4.70;;;;;;;15.56;96.55;99283.34;2066591;28;20033;-68
2021/10/03 03:58:36;;;;;;;4.63;4.22;;;;;;;15.55;96.31;99286.09;2066672;28;20113;-67
2021/10/03 03:59:36;;;;;;;5.60;4.50;;;;;;;15.53;96.52;99274.91;2066523;28;20057;-65
2021/10/03 04:00:37;;;;;;;4.93;4.43;;;;;;;15.51;96.97;99266.31;2065940;28;20014;-65
2021/10/03 04:01:37;;;;;;;5.60;4.20;;;;;;;15.51;96.73;99250.53;2066041;28;20077;-66
2021/10/03 04:02:38;;;;;;;6.00;3.87;;;;;;;15.50;96.57;99259.41;2066613;28;20023;-68
2021/10/03 04:03:38;;;;;;;6.20;4.50;;;;;;;15.47;96.73;99275.44;2066627;28;20057;-67
2021/10/03 04:04:39;;;;;;;5.10;4.00;;;;;;;15.47;96.71;99280.69;2066569;28;20027;-68
2021/10/03 04:05:40;;;;;;;4.90;3.70;;;;;;;15.45;96.88;99289.56;2066606;28;20041;-67
2021/10/03 04:06:40;;;;;;;4.60;4.20;;;;;;;15.43;97.65;99291.47;2065898;28;20037;-67
2021/10/03 04:07:40;;;;;;;8.00;5.13;;;;;;;15.42;97.45;99273.22;2065914;28;20180;-66
2021/10/03 04:08:40;;;;;;;7.27;5.60;;;;;;;15.45;97.12;99271.16;2065933;28;20022;-66
2021/10/03 04:09:41;;;;;;;5.20;4.17;;;;;;;15.50;96.57;99277.81;2066531;28;20061;-67
2021/10/03 04:10:41;;;;;;;6.40;4.70;;;;;;;15.50;96.30;99275.19;2066548;28;20030;-66
2021/10/03 04:11:41;;;;;;;5.27;4.67;;;;;;;15.49;96.26;99273.50;2066584;28;20022;-66
2021/10/03 04:12:41;;;;;;;5.27;4.60;;;;;;;15.51;96.11;99279.47;2066609;28;20030;-67
2021/10/03 04:13:42;;;;;;;4.97;4.40;;;;;;;15.48;95.70;99283.19;2066605;28;20018;-66
2021/10/03 04:14:42;;;;;;;5.60;5.03;;;;;;;15.47;96.01;99294.69;2066419;28;20042;-66
2021/10/03 04:15:42;;;;;;;6.57;4.30;;;;;;;15.46;96.23;99306.16;2066590;28;20014;-68
2021/10/03 04:16:43;;;;;;;9.07;4.37;;;;;;;15.44;96.42;99306.28;2065852;28;20049;-66
2021/10/03 04:17:43;;;;;;;6.10;5.50;;;;;;;15.43;96.18;99311.69;2057874;28;20106;-68
2021/10/03 04:18:43;;;;;;;5.83;5.27;;;;;;;15.42;96.42;99302.97;2065879;28;20022;-68
2021/10/03 04:19:43;;;;;;;5.57;4.90;;;;;;;15.38;96.44;99298.94;2066035;28;20022;-66
2021/10/03 04:20:44;;;;;;;5.47;4.97;;;;;;;15.35;96.76;99293.94;2066356;28;20077;-65
2021/10/03 04:21:44;;;;;;;6.93;4.40;;;;;;;15.32;97.20;99302.09;2066397;28;20045;-65
2021/10/03 04:22:44;;;;;;;6.47;5.87;;;;;;;15.28;97.63;99287.56;2065804;28;20089;-67
2021/10/03 04:23:44;;;;;;;5.67;4.50;;;;;;;15.27;97.57;99293.78;2066000;28;20073;-66
2021/10/03 04:24:45;;;;;;;7.03;5.73;;;;;;;15.25;97.75;99293.09;2066428;28;20053;-67
2021/10/03 04:25:45;;;;;;;11.00;6.13;;;;;;;15.22;97.71;99282.84;2066498;28;20035;-66
2021/10/03 04:26:45;;;;;;;6.23;5.50;;;;;;;15.20;97.99;99290.88;2066445;28;20038;-67
2021/10/03 04:27:46;;;;;;;7.13;6.37;;;;;;;15.18;97.92;99288.38;2066484;28;20117;-68
2021/10/03 04:28:46;;;;;;;6.00;5.20;;;;;;;15.15;98.44;99296.53;2065754;28;20046;-67
2021/10/03 04:29:47;;;;;;;5.73;5.03;;;;;;;15.13;98.36;99295.84;2065859;28;20443;-67
2021/10/03 04:30:47;;;;;;;6.20;5.60;;;;;;;15.10;98.81;99296.09;2066411;28;20045;-66
2021/10/03 04:31:47;;;;;;;6.37;4.27;;;;;;;15.09;98.78;99294.41;2066408;28;20041;-67
2021/10/03 04:32:47;;;;;;;6.67;4.87;;;;;;;15.06;98.86;99298.13;2066334;28;20365;-67
2021/10/03 04:33:48;;;;;;;6.37;5.00;;;;;;;15.04;98.93;99301.88;2066398;28;20086;-67
2021/10/03 04:34:48;;;;;;;8.13;5.43;;;;;;;15.02;99.30;99298.56;2066280;28;20392;-67
2021/10/03 04:35:48;;;;;;;5.33;4.63;;;;;;;15.00;99.31;99297.84;2065701;28;20073;-65
2021/10/03 04:36:50;;;;;;;7.27;4.07;;;;;;;14.95;99.31;99303.47;2065787;28;20328;-64
2021/10/03 04:37:51;;;;;;;3.72;3.38;;;;;;;14.80;98.57;99308.25;2066354;28;20027;-66
2021/10/03 04:38:51;;;;;;;3.73;3.07;;;;;;;14.65;98.43;99303.31;2065761;28;20443;-65
2021/10/03 04:39:51;;;;;;;3.07;2.77;;;;;;;14.59;98.62;99303.84;2057686;28;20049;-65
2021/10/03 04:40:52;;;;;;;2.90;2.70;;;;;;;14.54;98.95;99301.59;2065739;28;20411;-66
2021/10/03 04:41:53;;;;;;;4.67;3.10;;;;;;;14.44;99.06;99298.06;2066232;28;20030;-66
2021/10/03 04:42:53;;;;;;;2.58;2.38;;;;;;;14.32;98.56;99296.47;2066346;28;20026;-65
2021/10/03 04:43:53;;;;;;;5.90;2.40;;;;;;;14.25;98.85;99306.63;2066311;28;20037;-65
2021/10/03 04:44:54;;;;;;;2.83;2.63;;;;;;;14.20;99.05;99308.81;2066271;28;20026;-64
2021/10/03 04:45:55;;;;;;;;;;;;;;;14.19;99.47;99302.72;2066639;28;20065;-64
2021/10/03 04:46:55;;;;;;;2.63;2.42;;;;;;;14.15;99.23;99315.28;2066313;28;19909;-64